KHYS

Details ICAO KHYS (HYS)
Name HAYS RGNL
Region United States
Timezone America/Chicago (UTC-6.0)
Plans Departing 12
Arriving 10
Stats Elevation 1,998 ft / 609 m (AMSL)
Location 38.841782° -99.273031°
Runways 2
Magnetic Variation 4.858° E
Sunrise 2017-12-12 13:47:50 UTC / 2017-12-12 07:47:50 Local
Sunset 2017-12-12 23:16:56 UTC / 2017-12-12 17:16:56 Local
Advertisement - Login to hide

Runways

ID Width Length Bearing (true) Bearing (mag) Surface Threshold Offset Overrun Length
04 75 ft / 23 m 4,498 ft / 1,371 m 48.03° 43.17° Concrete 0 ft / 0 m 0 ft / 0 m
16 100 ft / 30 m 6,511 ft / 1,985 m 167.44° 162.58° Asphalt 0 ft / 0 m 0 ft / 0 m
22 75 ft / 23 m 4,498 ft / 1,371 m 228.03° 223.17° Concrete 0 ft / 0 m 0 ft / 0 m
34 100 ft / 30 m 6,511 ft / 1,985 m 347.44° 342.58° Asphalt 0 ft / 0 m 0 ft / 0 m

Map

Weather


0- 5 10 15 20 25 30 35+ Temperature / ° C

Clouds and Precipitation
Forecast for 2017-12-12 12:00 UTC. Updated an hour ago

Ground ~20,000 ft ~40,000 ft Winds

METAR

KHYS 121156Z AUTO 28007KT 10SM CLR M05/M07 A3039 RMK AO2 SLP307 T10501067 11011 21067 58010 FZRANO

TAF

TAF KHYS 121120Z 1212/1312 29006KT P6SM SKC FM121700 28010KT P6SM SKC FM122300 25008KT P6SM SKC

Frequencies

Recorded 125.52 MHz AWOS 3
Unicom 122.80 MHz CTAF/UNICOM
Warning: Do not use this data for real-world aviation or navigation. No guarantee of current accuracy is given.